Loftus, United Kingdom
Current Conditions -  °F | °C
As of 9:50 PM on Wednesday 26 Nov 2014 (Local Time) from EGNV Reporting Station
Broken Clouds Broken Clouds  
Wind Chill: 40°   Ceiling: 2900
Heat Index: 43°   Visibility: 5mi
Dew Point: 41°   Wind: 5mph
Humidity: 93%   Direction: 340°NNW
Pressure: 29.8"   Gusts: NA
Location:  54.56°N, 0.89°W
Report Text: EGNV 262150Z 34004KT 8000 FEW013 BKN029 06/05 Q1009
Loading
Personal Weather Stations






























Interactive Weather Map New forecast layout! Learn more

10-Day Weather Forecast

Advertisements
Track Severe Weather on mobile